Kezdőlap
METAR-TAF:

METAR-TAF

Repülőterek :

Hagåtña, Guam, Amerikai Egyesült Államok

földrajzi szélesség: 13-29N, földrajzi hosszúság: 144-48E, magasság: 91 m

Jelenlegi meteorológiai megfigyelések

A jelentés 15 perccel ezelõtt készült, 07:54 UTC
Keleti szél 11 kt
Hőmérséklet 28°C
Páratartalom 79%
Légköri nyomás 1009 hPa
Látótávolság: 16.1 km
Derült ég

METAR: PGUM 230754Z 09011KT 10SM CLR 28/24 A2980 RMK AO2 SLP083 T02830239

Idő: 18:09 (08:09 UTC)

Előrejelzés

A jelentés 2 órával és 45 perccel ezelõtt készült, 05:24 UTC
Az előrejelzés 23-én 06 óra UTC és 24-én 12 óra UTC között érvényes
Keleti szél 11 kt széllökések: 18 kt
Látótávolság: 10 km
Kevés felhő 2500 lábon
Szórványos felhőzet 5000 lábon
23-én 0800 órától UTC szerint
Keleti szél 11 kt
Látótávolság: 10 km
Kevés felhő 2500 lábon
Szórványos felhőzet 5000 lábon

TAF: PGUM 230524Z 2306/2412 08011G18KT P6SM FEW025 SCT050 FM230800 08011KT P6SM FEW025 SCT050

Meteorológiai megfigyelések és előrejelzések több, mint 4000 repülőtéren (METAR és TAF jelentéseket).

A térképen piros és sárga pontok jelzik az elérhető meteorológiai állomásokat.

Mozgassa az egeret a pont fölött, hogy megjelenjen az állomás neve.

Azután kattintson az időjárási megfigyelések és előrejelzések megtekintéséhez.

A térkép megváltoztatása: kattintson a fekete keresztel jelölt zöld gombra ráközelítéshez, a vonallal jelölt zöld gombra távolításhoz, vagy a zöld nyilakra a szomszédos térképek eléréséhez.


METAR-TAF: